createdAt,value
2019-02-12T00:00:50.563Z,85.27
2019-02-12T00:03:59.055Z,85.68
2019-02-12T00:06:33.277Z,85.49
2019-02-12T00:12:05.463Z,83.65
2019-02-12T00:14:38.748Z,83.04
2019-02-12T00:20:30.231Z,85.06
2019-02-12T00:23:00.365Z,84.77
2019-02-12T00:25:30.996Z,85.25
2019-02-12T00:28:14.205Z,85.03
2019-02-12T00:31:03.504Z,84.80
2019-02-12T00:33:36.724Z,85.77
2019-02-12T00:36:19.089Z,85.61
2019-02-12T00:39:00.517Z,84.73
2019-02-12T00:41:32.457Z,83.53
2019-02-12T00:46:52.103Z,82.24
2019-02-12T00:49:23.995Z,83.96
2019-02-12T00:51:54.245Z,83.17
2019-02-12T00:54:43.847Z,82.45
2019-02-12T00:57:14.112Z,82.13
2019-02-12T00:59:44.393Z,80.60
2019-02-12T01:02:26.736Z,79.86
2019-02-12T01:05:09.941Z,79.06
2019-02-12T01:07:41.153Z,80.28
2019-02-12T01:10:11.416Z,81.17
2019-02-12T01:15:36.580Z,80.87
2019-02-12T01:18:18.665Z,80.71
2019-02-12T01:21:27.141Z,80.46
2019-02-12T01:26:59.262Z,81.55
2019-02-12T01:29:29.900Z,83.37
2019-02-12T01:32:19.571Z,83.75
2019-02-12T01:35:09.042Z,82.77
2019-02-12T01:40:42.007Z,83.50
2019-02-12T01:43:22.787Z,84.61
2019-02-12T01:46:12.871Z,83.72
2019-02-12T01:51:45.486Z,83.64
2019-02-12T01:54:27.888Z,83.40
2019-02-12T01:56:58.184Z,83.10
2019-02-12T01:59:28.550Z,83.54
2019-02-12T02:02:35.604Z,84.19
2019-02-12T02:05:06.774Z,84.16
2019-02-12T02:10:30.486Z,82.92
2019-02-12T02:13:00.798Z,82.20
2019-02-12T02:15:31.330Z,82.65
2019-02-12T02:18:13.625Z,81.81
2019-02-12T02:21:01.894Z,80.76
2019-02-12T02:23:40.920Z,80.28
2019-02-12T02:26:23.116Z,80.53
2019-02-12T02:28:54.701Z,80.80
2019-02-12T02:35:04.085Z,79.90
2019-02-12T02:37:36.106Z,80.02
2019-02-12T02:40:18.485Z,79.20
2019-02-12T02:43:00.995Z,79.69
2019-02-12T02:45:32.173Z,78.61
2019-02-12T02:48:02.551Z,79.66
2019-02-12T02:50:44.076Z,80.28
2019-02-12T02:53:29.992Z,79.68
2019-02-12T02:56:20.760Z,78.98
2019-02-12T02:58:51.016Z,80.10
2019-02-12T03:01:33.187Z,81.07
2019-02-12T03:04:14.793Z,80.81
2019-02-12T03:06:45.092Z,80.94
2019-02-12T03:09:15.384Z,82.11
2019-02-12T03:11:57.777Z,79.78
2019-02-12T03:14:40.091Z,80.14
2019-02-12T03:17:13.321Z,80.64
2019-02-12T03:19:43.606Z,80.87
2019-02-12T03:22:25.217Z,80.39
2019-02-12T03:25:07.625Z,80.99
2019-02-12T03:27:38.277Z,79.94
2019-02-12T03:30:09.400Z,79.27
2019-02-12T03:32:43.265Z,79.12
2019-02-12T03:35:13.567Z,80.14
2019-02-12T03:37:43.835Z,81.01
2019-02-12T03:40:33.481Z,81.14
2019-02-12T03:43:03.851Z,79.93
2019-02-12T03:45:34.071Z,80.63
2019-02-12T03:48:04.372Z,79.69
2019-02-12T03:50:46.047Z,80.03
2019-02-12T03:53:28.399Z,79.85
2019-02-12T03:55:59.600Z,80.59
2019-02-12T04:01:50.781Z,79.68
2019-02-12T04:04:40.004Z,78.33
2019-02-12T04:10:32.227Z,80.12
2019-02-12T04:13:05.127Z,79.93
2019-02-12T04:19:00.845Z,79.55
2019-02-12T04:21:31.088Z,78.41
2019-02-12T04:24:01.370Z,78.31
2019-02-12T04:26:43.553Z,77.44
2019-02-12T04:29:25.530Z,77.95
2019-02-12T04:31:58.173Z,76.88
2019-02-12T04:34:32.770Z,77.87
2019-02-12T04:37:22.441Z,77.96
2019-02-12T04:39:55.273Z,77.60
2019-02-12T04:42:59.142Z,77.79
2019-02-12T04:45:24.983Z,78.47
2019-02-12T04:47:55.264Z,78.19
2019-02-12T04:50:37.744Z,78.73
2019-02-12T04:53:19.881Z,78.78
2019-02-12T04:55:50.237Z,79.12
2019-02-12T04:58:20.488Z,79.72
2019-02-12T05:01:10.103Z,80.21
2019-02-12T05:03:40.387Z,80.75
2019-02-12T05:06:10.733Z,82.19
2019-02-12T05:09:19.431Z,82.06
2019-02-12T05:12:11.773Z,79.92
2019-02-12T05:14:42.434Z,82.24
2019-02-12T05:20:50.347Z,82.17
2019-02-12T05:23:20.634Z,81.97
2019-02-12T05:29:12.933Z,82.15
2019-02-12T05:31:50.917Z,82.14
2019-02-12T05:34:33.242Z,82.02
2019-02-12T05:37:03.495Z,82.56
2019-02-12T05:39:33.729Z,81.73
2019-02-12T05:42:16.183Z,82.75
2019-02-12T05:44:58.616Z,81.98
2019-02-12T05:47:29.377Z,82.93
2019-02-12T05:50:03.674Z,83.09
2019-02-12T05:56:08.987Z,82.04
2019-02-12T05:58:39.209Z,82.48
2019-02-12T06:01:27.634Z,82.00
2019-02-12T06:07:02.648Z,82.16
2019-02-12T06:09:44.629Z,82.04
2019-02-12T06:12:33.796Z,82.76
2019-02-12T06:15:04.514Z,83.14
2019-02-12T06:17:47.717Z,83.35
2019-02-12T06:20:31.344Z,83.41
2019-02-12T06:23:03.373Z,84.23
2019-02-12T06:26:06.544Z,85.02
2019-02-12T06:28:39.791Z,83.88
2019-02-12T06:31:29.197Z,83.37
2019-02-12T06:39:23.154Z,85.35
2019-02-12T06:41:53.418Z,85.55
2019-02-12T06:44:23.677Z,85.51
2019-02-12T06:46:55.550Z,85.23
2019-02-12T06:50:04.255Z,85.64
2019-02-12T06:52:54.243Z,86.24
2019-02-12T06:55:26.937Z,86.32
2019-02-12T06:58:16.613Z,86.71
2019-02-12T07:00:46.858Z,86.90
2019-02-12T07:03:18.757Z,87.19
2019-02-12T07:09:06.144Z,87.20
2019-02-12T07:15:53.349Z,88.15
2019-02-12T07:19:07.542Z,91.13
2019-02-12T07:25:18.316Z,95.33
2019-02-12T07:28:26.839Z,97.78
2019-02-12T07:31:37.556Z,100.00
2019-02-12T07:34:49.039Z,100.00
2019-02-12T07:37:59.404Z,100.00
2019-02-12T07:40:43.489Z,100.00
2019-02-12T07:43:54.713Z,100.00
2019-02-12T07:53:45.253Z,100.00
2019-02-12T07:56:55.355Z,100.00
2019-02-12T08:00:04.024Z,100.00
2019-02-12T08:02:52.488Z,100.00
2019-02-12T08:06:01.090Z,100.00
2019-02-12T08:09:12.829Z,100.00
2019-02-12T08:12:07.149Z,100.00
2019-02-12T08:15:16.835Z,100.00
2019-02-12T08:18:25.350Z,100.00
2019-02-12T08:21:34.173Z,100.00
2019-02-12T08:24:44.569Z,100.00
2019-02-12T08:27:53.312Z,100.00
2019-02-12T08:31:01.731Z,100.00
2019-02-12T08:34:10.466Z,100.00
2019-02-12T08:40:51.146Z,100.00
2019-02-12T08:47:00.066Z,100.00
2019-02-12T08:49:46.036Z,100.00
2019-02-12T08:52:57.878Z,100.00
2019-02-12T08:56:08.015Z,100.00
2019-02-12T08:59:11.328Z,100.00
2019-02-12T09:02:19.823Z,100.00
2019-02-12T09:05:12.886Z,100.00
2019-02-12T09:08:11.305Z,100.00
2019-02-12T09:11:19.807Z,100.00
2019-02-12T09:14:28.553Z,100.00
2019-02-12T09:17:11.039Z,100.00
2019-02-12T09:20:19.776Z,100.00
2019-02-12T09:23:28.509Z,99.33
2019-02-12T09:30:01.127Z,98.04
2019-02-12T09:36:34.116Z,97.26
2019-02-12T09:39:44.516Z,97.54
2019-02-12T09:42:53.001Z,97.57
2019-02-12T09:46:03.076Z,96.89
2019-02-12T09:48:57.393Z,97.08
2019-02-12T09:52:06.104Z,96.30
2019-02-12T09:58:34.389Z,95.14
2019-02-12T10:01:26.886Z,94.12
2019-02-12T10:07:38.155Z,91.74
2019-02-12T10:10:35.857Z,91.10
2019-02-12T10:13:46.323Z,91.25
2019-02-12T10:16:40.788Z,90.37
2019-02-12T10:19:56.143Z,90.29
2019-02-12T10:22:41.966Z,89.38
2019-02-12T10:25:35.449Z,87.76
2019-02-12T10:31:50.393Z,85.82
2019-02-12T10:34:20.719Z,85.34
2019-02-12T10:37:29.143Z,84.98
2019-02-12T10:43:13.807Z,85.65
2019-02-12T10:49:33.978Z,85.11
2019-02-12T10:52:15.116Z,84.52
2019-02-12T10:54:45.861Z,85.58
2019-02-12T10:57:16.124Z,83.99
2019-02-12T11:03:09.433Z,84.64
2019-02-12T11:12:13.693Z,84.29
2019-02-12T11:14:44.062Z,80.90
2019-02-12T11:20:55.879Z,77.48
2019-02-12T11:23:26.161Z,77.19
2019-02-12T11:28:49.648Z,78.51
2019-02-12T11:31:41.499Z,78.16
2019-02-12T11:34:11.733Z,77.33
2019-02-12T11:43:07.403Z,76.71
2019-02-12T11:45:37.691Z,75.84
2019-02-12T11:48:07.976Z,76.22
2019-02-12T11:53:42.956Z,76.12
2019-02-12T11:56:15.672Z,73.44
2019-02-12T11:59:01.028Z,72.80
2019-02-12T12:05:01.401Z,71.56
2019-02-12T12:07:37.358Z,72.71
2019-02-12T12:13:25.232Z,73.57
2019-02-12T12:15:55.610Z,71.19
2019-02-12T12:18:37.262Z,72.54
2019-02-12T12:21:19.514Z,72.82
2019-02-12T12:24:27.995Z,73.62
2019-02-12T12:27:00.276Z,74.16
2019-02-12T12:29:45.121Z,73.50
2019-02-12T12:32:16.704Z,75.02
2019-02-12T12:35:06.106Z,74.10
2019-02-12T12:37:36.388Z,74.31
2019-02-12T12:40:08.352Z,71.92
2019-02-12T12:45:41.368Z,72.56
2019-02-12T12:54:59.703Z,73.58
2019-02-12T12:57:32.407Z,72.31
2019-02-12T13:00:15.025Z,71.70
2019-02-12T13:02:53.997Z,70.31
2019-02-12T13:05:24.276Z,72.42
2019-02-12T13:08:13.969Z,73.99
2019-02-12T13:10:44.730Z,73.28
2019-02-12T13:13:22.093Z,74.29
2019-02-12T13:16:08.244Z,76.55
2019-02-12T13:18:38.533Z,77.18
2019-02-12T13:27:08.795Z,77.49
2019-02-12T13:29:50.801Z,77.26
2019-02-12T13:32:33.173Z,77.21
2019-02-12T13:35:03.797Z,78.89
2019-02-12T13:37:56.161Z,78.71
2019-02-12T13:40:28.572Z,79.87
2019-02-12T13:42:59.242Z,79.61
2019-02-12T13:48:52.013Z,79.58
2019-02-12T13:51:38.557Z,79.48
2019-02-12T13:54:37.421Z,80.14
2019-02-12T13:57:20.752Z,80.93
2019-02-12T14:00:30.026Z,81.70
2019-02-12T14:03:02.682Z,81.50
2019-02-12T14:05:32.966Z,81.55
2019-02-12T14:08:42.981Z,82.29
2019-02-12T14:11:13.363Z,82.85
2019-02-12T14:14:02.821Z,81.80
2019-02-12T14:19:39.178Z,82.06
2019-02-12T14:22:25.231Z,82.53
2019-02-12T14:24:52.303Z,82.80
2019-02-12T14:27:24.834Z,82.88
2019-02-12T14:36:03.753Z,82.43
2019-02-12T14:38:41.517Z,81.78
2019-02-12T14:44:26.480Z,81.90
2019-02-12T14:47:34.906Z,82.62
2019-02-12T14:50:11.900Z,82.95
2019-02-12T14:56:11.215Z,82.50
2019-02-12T14:58:46.141Z,82.45
2019-02-12T15:04:49.528Z,82.24
2019-02-12T15:13:27.698Z,79.42
2019-02-12T15:16:10.562Z,78.39
2019-02-12T15:18:44.067Z,79.00
2019-02-12T15:21:24.041Z,78.61
2019-02-12T15:27:03.703Z,79.16
2019-02-12T15:29:53.247Z,79.42
2019-02-12T15:38:24.912Z,79.61
2019-02-12T15:50:04.787Z,80.34
2019-02-12T15:52:53.285Z,80.87
2019-02-12T15:55:25.677Z,80.72
2019-02-12T16:04:21.571Z,80.36
2019-02-12T16:11:11.110Z,80.84
2019-02-12T16:16:52.495Z,81.51
2019-02-12T16:20:22.417Z,81.82
2019-02-12T16:22:51.177Z,81.57
2019-02-12T16:25:23.082Z,81.85
2019-02-12T16:27:55.001Z,82.05
2019-02-12T16:36:33.992Z,82.88
2019-02-12T16:39:05.587Z,82.22
2019-02-12T16:41:56.983Z,82.05
2019-02-12T16:47:57.992Z,82.73
2019-02-12T16:50:40.341Z,83.28
2019-02-12T16:53:22.369Z,84.42
2019-02-12T16:56:08.395Z,84.87
2019-02-12T17:01:39.090Z,85.58
2019-02-12T17:04:24.139Z,86.02
2019-02-12T17:07:13.595Z,86.08
2019-02-12T17:10:23.321Z,86.40
2019-02-12T17:13:09.965Z,86.75
2019-02-12T17:15:35.666Z,87.14
2019-02-12T17:21:36.788Z,87.95
2019-02-12T17:24:11.000Z,88.25
2019-02-12T17:26:55.725Z,88.34
2019-02-12T17:29:44.923Z,88.48
2019-02-12T17:32:26.457Z,89.23
2019-02-12T17:35:01.385Z,89.49
2019-02-12T17:44:57.391Z,90.31
2019-02-12T17:48:00.700Z,90.61
2019-02-12T17:57:10.179Z,90.90
2019-02-12T17:59:41.016Z,91.08
2019-02-12T18:02:11.719Z,91.47
2019-02-12T18:04:44.823Z,91.53
2019-02-12T18:07:34.521Z,92.00
2019-02-12T18:10:10.518Z,93.01
2019-02-12T18:13:19.324Z,93.78
2019-02-12T18:16:40.364Z,93.95
2019-02-12T18:19:12.189Z,94.05
2019-02-12T18:22:04.370Z,94.71
2019-02-12T18:24:34.730Z,94.31
2019-02-12T18:30:48.807Z,95.15
2019-02-12T18:36:22.214Z,94.72
2019-02-12T18:39:11.694Z,94.94
2019-02-12T18:42:00.913Z,95.23
2019-02-12T18:50:15.013Z,95.47
2019-02-12T18:53:04.406Z,95.50
2019-02-12T18:55:34.745Z,95.53
2019-02-12T18:58:24.354Z,95.76
2019-02-12T19:04:11.833Z,95.44
2019-02-12T19:07:10.218Z,95.76
2019-02-12T19:09:54.079Z,96.01
2019-02-12T19:12:25.683Z,95.73
2019-02-12T19:14:57.578Z,95.93
2019-02-12T19:17:43.432Z,96.90
2019-02-12T19:20:32.875Z,97.03
2019-02-12T19:26:31.175Z,97.82
2019-02-12T19:29:22.147Z,97.87
2019-02-12T19:35:41.530Z,98.52
2019-02-12T19:38:32.149Z,98.62
2019-02-12T19:41:17.171Z,99.02
2019-02-12T19:43:47.508Z,99.44
2019-02-12T19:49:18.678Z,99.24
2019-02-12T20:06:57.103Z,98.90
2019-02-12T20:09:29.341Z,99.35
2019-02-12T20:12:14.589Z,99.52
2019-02-12T20:14:45.091Z,99.31
2019-02-12T20:17:17.935Z,99.21
2019-02-12T20:20:08.821Z,99.07
2019-02-12T20:22:50.735Z,99.22
2019-02-12T20:25:34.758Z,99.07
2019-02-12T20:31:01.419Z,99.28
2019-02-12T20:33:45.016Z,99.44
2019-02-12T20:36:15.380Z,99.35
2019-02-12T20:38:48.229Z,99.93
2019-02-12T20:41:52.429Z,100.00
2019-02-12T20:45:03.740Z,100.00
2019-02-12T20:47:38.021Z,100.00
2019-02-12T20:50:31.965Z,100.00
2019-02-12T20:53:22.995Z,100.00
2019-02-12T20:55:53.276Z,100.00
2019-02-12T20:58:36.096Z,100.00
2019-02-12T21:01:19.919Z,100.00
2019-02-12T21:10:50.038Z,99.92
2019-02-12T21:21:21.232Z,100.00
2019-02-12T21:41:55.744Z,100.00
2019-02-12T21:51:53.377Z,99.68
2019-02-12T21:54:59.107Z,100.00
2019-02-12T21:58:43.688Z,99.94
2019-02-12T22:12:23.217Z,100.00
2019-02-12T22:24:41.839Z,100.00
2019-02-12T22:27:55.958Z,100.00
2019-02-12T22:31:10.832Z,100.00
2019-02-12T22:33:41.115Z,100.00
2019-02-12T22:40:04.517Z,100.00
2019-02-12T22:47:03.566Z,100.00
2019-02-12T22:50:30.929Z,100.00
2019-02-12T22:56:46.998Z,100.00
2019-02-12T22:59:52.701Z,100.00
2019-02-12T23:09:35.639Z,100.00
2019-02-12T23:18:12.420Z,100.00
2019-02-12T23:23:48.779Z,100.00
2019-02-12T23:32:16.719Z,100.00
2019-02-12T23:34:57.861Z,100.00
2019-02-12T23:37:48.176Z,100.00
2019-02-12T23:40:25.611Z,100.00
2019-02-12T23:43:15.274Z,100.00
2019-02-12T23:45:47.653Z,100.00
2019-02-12T23:48:38.339Z,100.00
2019-02-12T23:51:10.974Z,100.00
2019-02-12T23:53:41.514Z,100.00
2019-02-12T23:56:51.837Z,100.00
